Time;durP1;ratioP1;P1;durP2;ratioP2;P2;SDS_P1;SDS_P2;PMS_P1;PMS_P2;Temp;Humidity;BMP_temperature;BMP_pressure;BME280_temperature;BME280_humidity;BME280_pressure;Samples;Min_cycle;Max_cycle;Signal;HPM_P1;HPM_P2
2023/12/29 00:01:15;;;;;;;;;;;10.10;99.90;;;;;;5044525;28;20585;-76
2023/12/29 00:03:40;;;;;;;;;;;10.10;99.90;;;;;;5046413;28;20506;-76
2023/12/29 00:06:06;;;;;;;;;;;10.10;99.90;;;;;;5068013;28;19921;-76
2023/12/29 00:08:32;;;;;;;;;;;10.10;99.90;;;;;;5067227;28;20391;-76
2023/12/29 00:10:57;;;;;;;;;;;10.10;99.90;;;;;;5050371;28;19931;-76
2023/12/29 00:13:23;;;;;;;;;;;10.20;99.90;;;;;;5045712;28;20261;-76
2023/12/29 00:15:52;;;;;;;;;;;10.20;99.90;;;;;;5060351;28;19927;-77
2023/12/29 00:18:18;;;;;;;;;;;10.20;99.90;;;;;;5050229;28;20047;-76
2023/12/29 00:20:44;;;;;;;;;;;10.20;99.90;;;;;;5036587;28;20027;-76
2023/12/29 00:23:09;;;;;;;;;;;10.20;99.90;;;;;;5050106;28;19920;-76
2023/12/29 00:25:38;;;;;;;;;;;10.20;99.90;;;;;;5050596;28;20272;-76
2023/12/29 00:28:04;;;;;;;;;;;10.30;99.90;;;;;;5070895;28;19928;-75
2023/12/29 00:30:30;;;;;;;;;;;10.30;99.90;;;;;;5050878;28;19920;-75
2023/12/29 00:32:55;;;;;;;;;;;10.30;99.90;;;;;;5050280;28;19927;-76
2023/12/29 00:35:21;;;;;;;;;;;10.30;99.90;;;;;;5069886;28;19920;-76
2023/12/29 00:37:46;;;;;;;;;;;10.30;99.90;;;;;;5045912;28;19920;-76
2023/12/29 00:40:12;;;;;;;;;;;10.30;99.90;;;;;;5049340;28;19988;-75
2023/12/29 00:42:38;;;;;;;;;;;10.20;99.90;;;;;;5041878;28;19920;-75
2023/12/29 00:45:04;;;;;;;;;;;10.20;99.90;;;;;;5049357;28;19924;-76
2023/12/29 00:47:29;;;;;;;;;;;10.20;99.90;;;;;;5050527;28;20379;-76
2023/12/29 00:49:55;;;;;;;;;;;10.10;99.90;;;;;;5058576;28;19942;-76
2023/12/29 00:52:20;;;;;;;;;;;10.10;99.90;;;;;;5039521;28;20336;-76
2023/12/29 00:54:46;;;;;;;;;;;10.10;99.90;;;;;;5030310;28;19929;-76
2023/12/29 00:57:11;;;;;;;;;;;10.10;99.90;;;;;;5044918;28;19921;-76
2023/12/29 00:59:39;;;;;;;;;;;10.00;99.90;;;;;;5046486;28;19920;-76
2023/12/29 01:02:05;;;;;;;;;;;10.00;99.90;;;;;;5048583;28;19920;-76
2023/12/29 01:04:31;;;;;;;;;;;10.00;99.90;;;;;;5051167;28;19920;-76
2023/12/29 01:06:56;;;;;;;;;;;10.00;99.90;;;;;;5039621;28;19924;-76
2023/12/29 01:09:22;;;;;;;;;;;10.00;99.90;;;;;;5050095;28;19925;-76
2023/12/29 01:11:47;;;;;;;;;;;10.00;99.90;;;;;;5043270;28;19925;-76
2023/12/29 01:14:13;;;;;;;;;;;10.00;99.90;;;;;;5044014;28;19921;-75
2023/12/29 01:16:39;;;;;;;;;;;10.00;99.90;;;;;;5046505;28;19921;-76
2023/12/29 01:19:05;;;;;;;;;;;10.00;99.90;;;;;;5045535;28;19920;-76
2023/12/29 01:21:33;;;;;;;;;;;10.00;99.90;;;;;;5046711;28;19925;-76
2023/12/29 01:24:04;;;;;;;;;;;10.00;99.90;;;;;;5059488;28;19948;-76
2023/12/29 01:26:30;;;;;;;;;;;9.90;99.90;;;;;;5032810;28;19928;-76
2023/12/29 01:28:55;;;;;;;;;;;9.90;99.90;;;;;;5043971;28;19925;-76
2023/12/29 01:31:21;;;;;;;;;;;9.90;99.90;;;;;;5040933;28;19928;-76
2023/12/29 01:33:47;;;;;;;;;;;9.90;99.90;;;;;;5047661;28;20423;-77
2023/12/29 01:36:19;;;;;;;;;;;9.90;99.90;;;;;;5044232;28;20058;-76
2023/12/29 01:38:44;;;;;;;;;;;9.90;99.90;;;;;;5046066;28;20011;-76
2023/12/29 01:41:10;;;;;;;;;;;9.90;99.90;;;;;;5041155;28;20531;-76
2023/12/29 01:43:35;;;;;;;;;;;9.90;99.90;;;;;;5046184;28;19921;-76
2023/12/29 01:46:01;;;;;;;;;;;9.90;99.90;;;;;;5046633;28;19943;-76
2023/12/29 01:48:27;;;;;;;;;;;10.00;99.90;;;;;;5045177;28;19927;-76
2023/12/29 01:50:53;;;;;;;;;;;9.90;99.90;;;;;;5046749;28;19921;-76
2023/12/29 01:53:18;;;;;;;;;;;9.90;99.90;;;;;;5036729;28;19921;-76
2023/12/29 01:55:45;;;;;;;;;;;9.90;99.90;;;;;;5041723;28;19925;-76
2023/12/29 01:58:10;;;;;;;;;;;10.10;99.90;;;;;;5039136;28;19928;-76
2023/12/29 02:00:36;;;;;;;;;;;9.90;99.90;;;;;;5043513;28;20384;-75
2023/12/29 02:03:01;;;;;;;;;;;9.90;99.90;;;;;;5033266;28;20035;-77
2023/12/29 02:05:29;;;;;;;;;;;9.90;99.90;;;;;;5046625;28;19960;-76
2023/12/29 02:07:54;;;;;;;;;;;9.90;99.90;;;;;;5046612;28;19924;-76
2023/12/29 02:10:20;;;;;;;;;;;9.80;99.90;;;;;;5046658;28;20475;-76
2023/12/29 02:12:47;;;;;;;;;;;9.90;99.90;;;;;;5047974;28;20311;-76
2023/12/29 02:15:13;;;;;;;;;;;9.80;99.90;;;;;;5046189;28;19932;-76
2023/12/29 02:17:44;;;;;;;;;;;9.80;99.90;;;;;;5072206;28;19974;-77
2023/12/29 02:20:11;;;;;;;;;;;9.80;99.90;;;;;;5052046;28;19942;-76
2023/12/29 02:22:37;;;;;;;;;;;9.70;99.90;;;;;;5049250;28;19969;-76
2023/12/29 02:25:03;;;;;;;;;;;9.70;99.90;;;;;;5051564;28;19928;-77
2023/12/29 02:27:28;;;;;;;;;;;9.70;99.90;;;;;;5069352;28;20331;-76
2023/12/29 02:30:13;;;;;;;;;;;9.70;99.90;;;;;;5046152;28;19924;-77
2023/12/29 02:32:40;;;;;;;;;;;9.70;99.90;;;;;;5051443;28;19932;-77
2023/12/29 02:35:10;;;;;;;;;;;9.70;99.90;;;;;;5052039;28;19943;-76
2023/12/29 02:37:36;;;;;;;;;;;9.60;99.90;;;;;;5052905;28;19962;-77
2023/12/29 02:40:02;;;;;;;;;;;9.60;99.90;;;;;;5050158;28;19924;-77
2023/12/29 02:42:28;;;;;;;;;;;9.50;99.90;;;;;;5052799;28;20334;-77
2023/12/29 02:44:53;;;;;;;;;;;9.60;99.90;;;;;;5052463;28;19930;-76
2023/12/29 02:47:21;;;;;;;;;;;9.50;99.90;;;;;;5047293;28;19947;-77
2023/12/29 02:49:46;;;;;;;;;;;9.50;99.90;;;;;;5051479;28;20003;-76
2023/12/29 02:52:12;;;;;;;;;;;9.50;99.90;;;;;;5051332;28;20027;-77
2023/12/29 02:54:37;;;;;;;;;;;9.40;99.90;;;;;;5049227;28;19921;-76
2023/12/29 02:57:03;;;;;;;;;;;9.40;99.90;;;;;;5050131;28;19921;-76
2023/12/29 02:59:29;;;;;;;;;;;9.30;99.90;;;;;;5050585;28;19979;-75
2023/12/29 03:01:54;;;;;;;;;;;9.30;99.90;;;;;;5070072;28;20333;-75
2023/12/29 03:04:20;;;;;;;;;;;9.30;99.90;;;;;;5052244;28;19924;-77
2023/12/29 03:06:45;;;;;;;;;;;9.30;99.90;;;;;;5054039;28;20279;-77
2023/12/29 03:09:11;;;;;;;;;;;9.30;99.90;;;;;;5051571;28;19924;-76
2023/12/29 03:11:36;;;;;;;;;;;9.30;99.90;;;;;;5048942;28;19920;-76
2023/12/29 03:14:02;;;;;;;;;;;9.30;99.90;;;;;;5043439;28;19927;-76
2023/12/29 03:16:27;;;;;;;;;;;9.30;99.90;;;;;;5051238;28;19964;-76
2023/12/29 03:18:53;;;;;;;;;;;9.30;99.90;;;;;;5047546;28;20245;-76
2023/12/29 03:21:18;;;;;;;;;;;9.30;99.90;;;;;;5044141;28;19924;-76
2023/12/29 03:23:44;;;;;;;;;;;9.20;99.90;;;;;;5052971;28;20003;-76
2023/12/29 03:26:09;;;;;;;;;;;9.50;99.90;;;;;;5049637;28;19920;-76
2023/12/29 03:28:35;;;;;;;;;;;9.30;99.90;;;;;;5051613;28;19927;-77
2023/12/29 03:31:00;;;;;;;;;;;9.40;99.90;;;;;;5051678;28;19932;-77
2023/12/29 03:33:26;;;;;;;;;;;9.40;99.90;;;;;;5051343;28;19920;-76
2023/12/29 03:35:51;;;;;;;;;;;9.40;99.90;;;;;;5052583;28;19959;-77
2023/12/29 03:38:17;;;;;;;;;;;9.50;99.90;;;;;;5052860;28;19927;-77
2023/12/29 03:40:42;;;;;;;;;;;9.50;99.90;;;;;;5070000;28;19928;-76
2023/12/29 03:43:08;;;;;;;;;;;9.60;99.90;;;;;;5050856;28;19932;-76
2023/12/29 03:45:33;;;;;;;;;;;9.60;99.90;;;;;;5052692;28;19928;-77
2023/12/29 03:47:59;;;;;;;;;;;9.60;99.90;;;;;;5050535;28;19959;-76
2023/12/29 03:50:24;;;;;;;;;;;9.70;99.90;;;;;;5051086;28;19966;-76
2023/12/29 03:52:50;;;;;;;;;;;9.70;99.90;;;;;;5052309;28;19928;-76
2023/12/29 03:55:16;;;;;;;;;;;9.60;99.90;;;;;;5052630;28;20464;-77
2023/12/29 03:57:44;;;;;;;;;;;9.70;99.90;;;;;;5067303;28;20013;-76
2023/12/29 04:00:14;;;;;;;;;;;9.70;99.90;;;;;;5048742;28;19920;-76
2023/12/29 04:02:40;;;;;;;;;;;9.70;99.90;;;;;;5051812;28;19920;-75
2023/12/29 04:05:06;;;;;;;;;;;9.70;99.90;;;;;;5049790;28;19931;-77
2023/12/29 04:07:32;;;;;;;;;;;9.70;99.90;;;;;;5052919;28;19973;-76
2023/12/29 04:09:57;;;;;;;;;;;9.70;99.90;;;;;;5051281;28;19924;-75
2023/12/29 04:12:23;;;;;;;;;;;9.80;99.90;;;;;;5050011;28;19925;-76
2023/12/29 04:14:48;;;;;;;;;;;9.70;99.90;;;;;;5039719;28;20304;-76
2023/12/29 04:17:14;;;;;;;;;;;9.70;99.90;;;;;;5050345;28;19924;-75
2023/12/29 04:19:40;;;;;;;;;;;9.80;99.90;;;;;;5051193;28;19932;-76
2023/12/29 04:22:07;;;;;;;;;;;9.70;99.90;;;;;;5051512;28;19927;-76
2023/12/29 04:24:32;;;;;;;;;;;9.80;99.90;;;;;;5050965;28;19926;-76
2023/12/29 04:26:58;;;;;;;;;;;9.80;99.90;;;;;;5050091;28;20556;-75
2023/12/29 04:29:23;;;;;;;;;;;9.80;99.90;;;;;;5050755;28;19934;-76
2023/12/29 04:31:49;;;;;;;;;;;9.80;99.90;;;;;;5048157;28;20023;-75
2023/12/29 04:34:15;;;;;;;;;;;9.70;99.90;;;;;;5050236;28;19921;-76
2023/12/29 04:36:40;;;;;;;;;;;9.80;99.90;;;;;;5052097;28;20012;-75
2023/12/29 04:39:08;;;;;;;;;;;9.80;99.90;;;;;;5050006;28;19963;-77
2023/12/29 04:41:34;;;;;;;;;;;9.70;99.90;;;;;;5043814;28;20334;-75
2023/12/29 04:44:00;;;;;;;;;;;9.80;99.90;;;;;;5050356;28;19920;-76
2023/12/29 04:46:25;;;;;;;;;;;9.70;99.90;;;;;;5044845;28;20502;-75
2023/12/29 04:48:51;;;;;;;;;;;9.70;99.90;;;;;;5040721;28;19946;-75
2023/12/29 04:51:16;;;;;;;;;;;9.70;99.90;;;;;;5048790;28;19927;-75
2023/12/29 04:53:42;;;;;;;;;;;9.70;99.90;;;;;;5042555;28;19920;-76
2023/12/29 04:56:07;;;;;;;;;;;9.70;99.90;;;;;;5048809;28;19924;-75
2023/12/29 04:58:33;;;;;;;;;;;9.70;99.90;;;;;;5047834;28;19977;-76
2023/12/29 05:00:59;;;;;;;;;;;9.70;99.90;;;;;;5043439;28;19943;-77
2023/12/29 05:03:24;;;;;;;;;;;9.70;99.90;;;;;;5050643;28;20360;-76
2023/12/29 05:05:50;;;;;;;;;;;9.70;99.90;;;;;;5048972;28;20006;-75
2023/12/29 05:08:15;;;;;;;;;;;9.70;99.90;;;;;;5047640;28;19931;-76
2023/12/29 05:10:41;;;;;;;;;;;9.70;99.90;;;;;;5049586;28;19920;-76
2023/12/29 05:13:06;;;;;;;;;;;9.70;99.90;;;;;;5043587;28;19924;-76
2023/12/29 05:15:32;;;;;;;;;;;9.70;99.90;;;;;;5048512;28;19954;-76
2023/12/29 05:17:57;;;;;;;;;;;9.70;99.90;;;;;;5048934;28;20079;-75
2023/12/29 05:20:23;;;;;;;;;;;9.60;99.90;;;;;;5049345;28;19950;-76
2023/12/29 05:22:48;;;;;;;;;;;9.70;99.90;;;;;;5050461;28;19921;-76
2023/12/29 05:25:14;;;;;;;;;;;9.70;99.90;;;;;;5049387;28;19924;-76
2023/12/29 05:27:40;;;;;;;;;;;9.70;99.90;;;;;;5049990;28;20028;-76
2023/12/29 05:30:06;;;;;;;;;;;9.70;99.90;;;;;;5048713;28;21269;-75
2023/12/29 05:32:31;;;;;;;;;;;9.70;99.90;;;;;;5081619;28;20299;-76
2023/12/29 05:34:57;;;;;;;;;;;9.70;99.90;;;;;;5067712;28;19927;-75
2023/12/29 05:37:22;;;;;;;;;;;9.70;99.90;;;;;;5050856;28;19924;-76
2023/12/29 05:39:48;;;;;;;;;;;9.70;99.90;;;;;;5050779;28;20326;-76
2023/12/29 05:42:14;;;;;;;;;;;9.70;99.90;;;;;;5049056;28;19924;-77
2023/12/29 05:44:39;;;;;;;;;;;9.70;99.90;;;;;;5068682;28;19975;-76
2023/12/29 05:47:05;;;;;;;;;;;9.70;99.90;;;;;;5048517;28;20022;-76
2023/12/29 05:49:31;;;;;;;;;;;9.80;99.90;;;;;;5052359;28;20280;-76
2023/12/29 05:51:57;;;;;;;;;;;9.80;99.90;;;;;;5070467;28;19993;-76
2023/12/29 05:54:23;;;;;;;;;;;9.80;99.90;;;;;;5038964;28;19928;-77
2023/12/29 05:56:49;;;;;;;;;;;9.80;99.90;;;;;;5044636;28;20015;-76
2023/12/29 05:59:14;;;;;;;;;;;9.80;99.90;;;;;;5052015;28;20018;-76
2023/12/29 06:01:40;;;;;;;;;;;9.80;99.90;;;;;;5041710;28;20400;-75
2023/12/29 06:04:05;;;;;;;;;;;9.80;99.90;;;;;;5040925;28;19967;-76
2023/12/29 06:06:31;;;;;;;;;;;9.80;99.90;;;;;;5054615;28;20372;-76
2023/12/29 06:08:56;;;;;;;;;;;9.80;99.90;;;;;;5061321;28;19921;-76
2023/12/29 06:11:22;;;;;;;;;;;9.80;99.90;;;;;;5069813;28;19977;-77
2023/12/29 06:13:48;;;;;;;;;;;9.70;99.90;;;;;;5054450;28;20372;-76
2023/12/29 06:16:17;;;;;;;;;;;9.80;99.90;;;;;;5051938;28;20304;-76
2023/12/29 06:18:43;;;;;;;;;;;9.80;99.90;;;;;;5069390;28;19964;-76
2023/12/29 06:21:08;;;;;;;;;;;9.80;99.90;;;;;;5060135;28;19963;-76
2023/12/29 06:23:34;;;;;;;;;;;9.80;99.90;;;;;;5054176;28;19925;-76
2023/12/29 06:25:59;;;;;;;;;;;9.70;99.90;;;;;;5051755;28;20051;-76
2023/12/29 06:28:25;;;;;;;;;;;9.70;99.90;;;;;;5052750;28;19921;-76
2023/12/29 06:30:50;;;;;;;;;;;9.70;99.90;;;;;;5050585;28;19973;-75
2023/12/29 06:33:16;;;;;;;;;;;9.70;99.90;;;;;;5042241;28;19921;-76
2023/12/29 06:35:42;;;;;;;;;;;9.70;99.90;;;;;;5052133;28;20417;-76
2023/12/29 06:38:07;;;;;;;;;;;9.60;99.90;;;;;;5052688;28;20342;-75
2023/12/29 06:40:33;;;;;;;;;;;9.60;99.90;;;;;;5051596;28;19928;-75
2023/12/29 06:42:58;;;;;;;;;;;9.60;99.90;;;;;;5052427;28;20265;-76
2023/12/29 06:45:24;;;;;;;;;;;9.50;99.90;;;;;;5050670;28;20054;-76
2023/12/29 06:47:50;;;;;;;;;;;9.50;99.90;;;;;;5064717;28;19921;-75
2023/12/29 06:50:15;;;;;;;;;;;9.40;99.90;;;;;;5052405;28;20489;-75
2023/12/29 06:52:41;;;;;;;;;;;9.40;99.90;;;;;;5066526;28;20033;-75
2023/12/29 06:55:07;;;;;;;;;;;9.40;99.90;;;;;;5071243;28;19943;-76
2023/12/29 06:57:33;;;;;;;;;;;9.30;99.90;;;;;;5084676;28;19920;-75
2023/12/29 06:59:58;;;;;;;;;;;9.30;99.90;;;;;;5051051;28;19935;-75
2023/12/29 07:02:24;;;;;;;;;;;9.20;99.90;;;;;;5048540;28;20276;-75
2023/12/29 07:04:50;;;;;;;;;;;9.20;99.90;;;;;;5051810;28;19926;-75
2023/12/29 07:07:15;;;;;;;;;;;9.20;99.90;;;;;;5069332;28;20495;-75
2023/12/29 07:09:41;;;;;;;;;;;9.20;99.90;;;;;;5045019;28;19974;-75
2023/12/29 07:12:07;;;;;;;;;;;9.20;99.90;;;;;;5045166;28;19921;-75
2023/12/29 07:14:32;;;;;;;;;;;9.20;99.90;;;;;;5045544;28;19990;-75
2023/12/29 07:16:58;;;;;;;;;;;9.30;99.90;;;;;;5048240;28;19971;-75
2023/12/29 07:19:23;;;;;;;;;;;9.40;99.90;;;;;;5044083;28;20272;-76
2023/12/29 07:21:49;;;;;;;;;;;9.10;99.90;;;;;;5046412;28;20287;-76
2023/12/29 07:24:15;;;;;;;;;;;9.30;99.90;;;;;;5047329;28;19931;-76
2023/12/29 07:26:40;;;;;;;;;;;9.30;99.90;;;;;;5048668;28;20303;-75
2023/12/29 07:29:06;;;;;;;;;;;9.30;99.90;;;;;;5044128;28;19921;-76
2023/12/29 07:31:31;;;;;;;;;;;9.30;99.90;;;;;;5048793;28;19927;-76
2023/12/29 07:33:58;;;;;;;;;;;9.30;99.90;;;;;;5042141;28;19975;-76
2023/12/29 07:36:24;;;;;;;;;;;9.50;99.90;;;;;;5046237;28;19981;-75
2023/12/29 07:38:50;;;;;;;;;;;9.30;99.90;;;;;;5049219;28;19920;-76
2023/12/29 07:41:15;;;;;;;;;;;9.40;99.90;;;;;;5046811;28;19932;-76
2023/12/29 07:43:41;;;;;;;;;;;9.30;99.90;;;;;;5047917;28;19921;-76
2023/12/29 07:46:06;;;;;;;;;;;9.20;99.90;;;;;;5046844;28;20304;-76
2023/12/29 07:48:32;;;;;;;;;;;9.20;99.90;;;;;;5048053;28;20010;-76
2023/12/29 07:50:58;;;;;;;;;;;9.20;99.90;;;;;;5048339;28;20280;-76
2023/12/29 07:53:24;;;;;;;;;;;9.10;99.90;;;;;;5046901;28;19932;-77
2023/12/29 07:55:52;;;;;;;;;;;9.10;99.90;;;;;;5046075;28;19921;-76
2023/12/29 07:58:17;;;;;;;;;;;9.10;99.90;;;;;;5043346;28;19975;-75
2023/12/29 08:00:43;;;;;;;;;;;9.10;99.90;;;;;;5048388;28;19952;-76
2023/12/29 08:03:08;;;;;;;;;;;9.10;99.90;;;;;;5036556;28;20313;-77
2023/12/29 08:05:34;;;;;;;;;;;9.10;99.90;;;;;;5046487;28;20366;-76
2023/12/29 08:07:59;;;;;;;;;;;9.10;99.90;;;;;;5046957;28;19928;-74
2023/12/29 08:10:25;;;;;;;;;;;9.10;99.90;;;;;;5041593;28;19927;-75
2023/12/29 08:12:50;;;;;;;;;;;9.10;99.90;;;;;;5046748;28;19959;-75
2023/12/29 08:15:17;;;;;;;;;;;9.10;99.90;;;;;;5050332;28;20080;-75
2023/12/29 08:17:42;;;;;;;;;;;9.20;99.90;;;;;;5049822;28;19927;-76
2023/12/29 08:20:08;;;;;;;;;;;9.20;99.90;;;;;;5046066;28;20515;-74
2023/12/29 08:22:34;;;;;;;;;;;9.20;99.90;;;;;;5049910;28;20305;-74
2023/12/29 08:24:59;;;;;;;;;;;9.20;99.90;;;;;;5058710;28;19921;-75
2023/12/29 08:27:28;;;;;;;;;;;9.20;99.90;;;;;;5048420;28;19920;-74
2023/12/29 08:29:56;;;;;;;;;;;9.20;99.90;;;;;;5049553;28;19975;-75
2023/12/29 08:32:22;;;;;;;;;;;9.10;99.90;;;;;;5050955;28;19920;-75
2023/12/29 08:34:47;;;;;;;;;;;9.20;99.90;;;;;;5050751;28;20455;-75
2023/12/29 08:37:19;;;;;;;;;;;9.20;99.90;;;;;;5049597;28;19947;-76
2023/12/29 08:39:45;;;;;;;;;;;9.00;99.90;;;;;;5049898;28;20279;-77
2023/12/29 08:42:11;;;;;;;;;;;9.20;99.90;;;;;;5048431;28;19924;-78
2023/12/29 08:44:36;;;;;;;;;;;9.20;99.90;;;;;;5047989;28;19920;-78
2023/12/29 08:47:03;;;;;;;;;;;9.20;99.90;;;;;;5049185;28;19920;-76
2023/12/29 08:49:28;;;;;;;;;;;9.20;99.90;;;;;;5059880;28;20003;-77
2023/12/29 08:51:54;;;;;;;;;;;9.50;99.90;;;;;;5046174;28;20011;-76
2023/12/29 08:54:19;;;;;;;;;;;9.40;99.90;;;;;;5054289;28;20444;-77
2023/12/29 08:56:45;;;;;;;;;;;9.30;99.90;;;;;;5047575;28;20231;-76
2023/12/29 08:59:10;;;;;;;;;;;9.30;99.90;;;;;;5049356;28;20394;-76
2023/12/29 09:01:36;;;;;;;;;;;9.30;99.90;;;;;;5050982;28;20383;-76
2023/12/29 09:04:01;;;;;;;;;;;9.30;99.90;;;;;;5045917;28;20019;-76
2023/12/29 09:06:27;;;;;;;;;;;9.30;99.90;;;;;;5050237;28;20001;-75
2023/12/29 09:08:52;;;;;;;;;;;9.30;99.90;;;;;;5051308;28;19920;-76
2023/12/29 09:11:18;;;;;;;;;;;9.30;99.90;;;;;;5049449;28;19932;-75
2023/12/29 09:13:43;;;;;;;;;;;9.30;99.90;;;;;;5046107;28;20371;-77
2023/12/29 09:16:09;;;;;;;;;;;9.30;99.90;;;;;;5050653;28;20287;-76
2023/12/29 09:18:34;;;;;;;;;;;9.30;99.90;;;;;;5050680;28;19959;-75
2023/12/29 09:21:00;;;;;;;;;;;9.40;99.90;;;;;;5049402;28;19920;-76
2023/12/29 09:23:25;;;;;;;;;;;9.30;99.90;;;;;;5051921;28;19921;-76
2023/12/29 09:25:51;;;;;;;;;;;9.40;99.90;;;;;;5053793;28;19921;-77
2023/12/29 09:28:16;;;;;;;;;;;9.50;99.90;;;;;;5070981;28;19922;-77
2023/12/29 09:30:42;;;;;;;;;;;9.40;99.90;;;;;;5054045;28;19924;-76
2023/12/29 09:33:10;;;;;;;;;;;9.50;99.90;;;;;;5053771;28;19977;-76
2023/12/29 09:35:36;;;;;;;;;;;9.50;99.90;;;;;;5048973;28;19926;-76
2023/12/29 09:38:01;;;;;;;;;;;9.50;99.90;;;;;;5058355;28;19924;-76
2023/12/29 09:40:27;;;;;;;;;;;9.60;99.90;;;;;;5050815;28;19970;-76
2023/12/29 09:42:53;;;;;;;;;;;9.60;99.90;;;;;;5048631;28;20402;-76
2023/12/29 09:45:22;;;;;;;;;;;9.60;99.90;;;;;;5053096;28;19931;-77
2023/12/29 09:47:48;;;;;;;;;;;9.70;99.90;;;;;;5049959;28;19959;-76
2023/12/29 09:50:14;;;;;;;;;;;9.70;99.90;;;;;;5053523;28;19950;-76
2023/12/29 09:52:40;;;;;;;;;;;9.70;99.90;;;;;;5049433;28;20364;-76
2023/12/29 09:55:10;;;;;;;;;;;9.70;99.90;;;;;;5051949;28;19964;-76
2023/12/29 09:57:38;;;;;;;;;;;9.70;99.90;;;;;;5072834;28;19950;-76
2023/12/29 10:00:05;;;;;;;;;;;9.70;99.90;;;;;;5068099;28;19927;-76
2023/12/29 10:02:31;;;;;;;;;;;9.80;99.90;;;;;;5051052;28;19926;-77
2023/12/29 10:04:56;;;;;;;;;;;9.80;99.90;;;;;;5059403;28;20090;-77
2023/12/29 10:07:26;;;;;;;;;;;9.80;99.90;;;;;;5051384;28;20323;-77
2023/12/29 10:09:56;;;;;;;;;;;9.80;99.90;;;;;;5079957;28;19920;-77
2023/12/29 10:12:23;;;;;;;;;;;9.90;99.90;;;;;;5050912;28;19924;-78
2023/12/29 10:14:52;;;;;;;;;;;9.90;99.90;;;;;;5048605;28;19929;-76
2023/12/29 10:17:22;;;;;;;;;;;10.00;99.90;;;;;;5049140;28;19931;-77
2023/12/29 10:19:55;;;;;;;;;;;9.90;99.90;;;;;;5081714;28;19959;-75
2023/12/29 10:22:21;;;;;;;;;;;9.90;99.90;;;;;;5048001;28;20286;-77
2023/12/29 10:24:48;;;;;;;;;;;10.00;99.90;;;;;;5051158;28;20553;-76
2023/12/29 10:27:14;;;;;;;;;;;10.00;99.90;;;;;;5050690;28;19929;-77
2023/12/29 10:29:39;;;;;;;;;;;10.00;99.90;;;;;;5046979;28;19924;-76
2023/12/29 10:32:05;;;;;;;;;;;10.00;99.90;;;;;;5051022;28;19927;-76
2023/12/29 10:34:34;;;;;;;;;;;10.00;99.90;;;;;;5051779;28;19916;-76
2023/12/29 10:37:01;;;;;;;;;;;10.00;99.90;;;;;;5070877;28;20307;-75
2023/12/29 10:39:28;;;;;;;;;;;10.00;99.90;;;;;;5071211;28;19920;-76
2023/12/29 10:42:03;;;;;;;;;;;10.10;99.90;;;;;;5052317;28;20383;-76
2023/12/29 10:44:28;;;;;;;;;;;10.00;99.90;;;;;;5050143;28;19989;-76
2023/12/29 10:46:54;;;;;;;;;;;10.00;99.90;;;;;;5043435;28;20399;-75
2023/12/29 10:49:19;;;;;;;;;;;10.10;99.90;;;;;;5051844;28;20001;-76
2023/12/29 10:51:45;;;;;;;;;;;10.10;99.90;;;;;;5052350;28;19960;-76
2023/12/29 10:54:18;;;;;;;;;;;10.10;99.90;;;;;;5036281;28;19920;-76
2023/12/29 10:56:44;;;;;;;;;;;10.10;99.90;;;;;;5041538;28;20011;-76
2023/12/29 10:59:12;;;;;;;;;;;10.30;99.90;;;;;;5056811;28;20006;-76
2023/12/29 11:01:37;;;;;;;;;;;10.50;99.90;;;;;;5052520;28;20049;-76
2023/12/29 11:04:06;;;;;;;;;;;10.60;99.90;;;;;;5052488;28;20006;-77
2023/12/29 11:06:44;;;;;;;;;;;10.70;99.90;;;;;;5047758;28;19978;-76
2023/12/29 11:09:10;;;;;;;;;;;10.70;99.90;;;;;;5070197;28;19924;-78
2023/12/29 11:11:36;;;;;;;;;;;10.60;99.90;;;;;;5052069;28;19966;-78
2023/12/29 11:14:02;;;;;;;;;;;10.50;99.90;;;;;;5049388;28;20560;-76
2023/12/29 11:16:29;;;;;;;;;;;10.30;99.90;;;;;;5052285;28;20343;-75
2023/12/29 11:18:55;;;;;;;;;;;10.20;99.90;;;;;;5051806;28;19931;-77
2023/12/29 11:21:22;;;;;;;;;;;10.20;99.90;;;;;;5066913;28;20030;-77
2023/12/29 11:23:48;;;;;;;;;;;10.20;99.90;;;;;;5049556;28;19921;-79
2023/12/29 11:26:14;;;;;;;;;;;10.10;99.90;;;;;;5039902;28;20046;-78
2023/12/29 11:28:40;;;;;;;;;;;10.20;99.90;;;;;;5051401;28;20434;-78
2023/12/29 11:31:06;;;;;;;;;;;10.20;99.90;;;;;;5051282;28;20682;-78
2023/12/29 11:33:35;;;;;;;;;;;10.20;99.90;;;;;;5051461;28;19924;-78
2023/12/29 11:36:13;;;;;;;;;;;10.10;99.90;;;;;;5070187;28;19921;-77
2023/12/29 11:38:49;;;;;;;;;;;10.20;99.90;;;;;;5052830;28;19943;-77
2023/12/29 11:41:38;;;;;;;;;;;10.20;99.90;;;;;;5046738;28;19920;-78
2023/12/29 11:44:03;;;;;;;;;;;10.20;99.90;;;;;;5047194;28;20013;-77
2023/12/29 11:46:36;;;;;;;;;;;10.10;99.90;;;;;;5050328;28;19986;-78
2023/12/29 11:49:04;;;;;;;;;;;10.10;99.90;;;;;;5042772;28;19921;-76
2023/12/29 11:51:39;;;;;;;;;;;10.00;99.90;;;;;;5048250;28;19920;-75
2023/12/29 11:54:05;;;;;;;;;;;10.00;99.90;;;;;;5062863;28;19959;-76
2023/12/29 11:56:31;;;;;;;;;;;10.20;99.90;;;;;;5067121;28;19927;-76
2023/12/29 11:59:11;;;;;;;;;;;10.80;99.90;;;;;;5051223;28;19920;-76
2023/12/29 12:01:37;;;;;;;;;;;11.70;99.90;;;;;;5049244;28;19920;-77
2023/12/29 12:04:02;;;;;;;;;;;12.80;99.90;;;;;;5050585;28;19920;-75
2023/12/29 12:06:40;;;;;;;;;;;13.60;99.90;;;;;;5040954;28;19942;-75
2023/12/29 12:09:15;;;;;;;;;;;14.20;99.90;;;;;;5040402;28;19920;-75
2023/12/29 12:11:41;;;;;;;;;;;15.00;99.90;;;;;;5050046;28;19920;-74
2023/12/29 12:14:07;;;;;;;;;;;15.40;99.90;;;;;;5042937;28;19928;-75
2023/12/29 12:16:48;;;;;;;;;;;15.00;99.90;;;;;;5046107;28;19920;-75
2023/12/29 12:19:15;;;;;;;;;;;14.50;99.90;;;;;;5042709;28;19920;-75
2023/12/29 12:21:40;;;;;;;;;;;14.00;99.90;;;;;;5037121;28;19920;-74
2023/12/29 12:24:06;;;;;;;;;;;13.60;99.90;;;;;;5050615;28;20303;-75
2023/12/29 12:26:32;;;;;;;;;;;13.20;99.90;;;;;;5067407;28;19920;-74
2023/12/29 12:28:58;;;;;;;;;;;12.90;99.90;;;;;;5060442;28;20391;-76
2023/12/29 12:31:23;;;;;;;;;;;12.60;99.90;;;;;;5048563;28;19962;-74
2023/12/29 12:33:53;;;;;;;;;;;12.20;99.90;;;;;;5066961;28;19916;-74
2023/12/29 12:36:19;;;;;;;;;;;11.90;99.90;;;;;;5051191;28;20454;-79
2023/12/29 12:38:54;;;;;;;;;;;11.50;99.90;;;;;;5051990;28;19920;-74
2023/12/29 12:41:20;;;;;;;;;;;11.20;99.90;;;;;;5050105;28;20521;-76
2023/12/29 12:43:50;;;;;;;;;;;11.00;99.90;;;;;;5050050;28;19924;-76
2023/12/29 12:46:16;;;;;;;;;;;10.90;99.90;;;;;;5038669;28;19920;-75
2023/12/29 12:48:44;;;;;;;;;;;10.70;99.90;;;;;;5049058;28;20369;-76
2023/12/29 12:51:10;;;;;;;;;;;10.60;99.90;;;;;;5050328;28;20423;-74
2023/12/29 12:53:39;;;;;;;;;;;10.50;99.90;;;;;;5040041;28;19917;-76
2023/12/29 12:56:05;;;;;;;;;;;10.50;99.90;;;;;;5067686;28;19928;-76
2023/12/29 12:58:31;;;;;;;;;;;10.30;99.90;;;;;;5048579;28;19928;-76
2023/12/29 13:00:57;;;;;;;;;;;10.30;99.90;;;;;;5050850;28;20034;-74
2023/12/29 13:03:23;;;;;;;;;;;10.00;99.90;;;;;;5046294;28;19974;-74
2023/12/29 13:05:49;;;;;;;;;;;10.10;99.90;;;;;;5055442;28;19920;-76
2023/12/29 13:08:14;;;;;;;;;;;9.90;99.90;;;;;;5053691;28;20330;-75
2023/12/29 13:10:40;;;;;;;;;;;9.80;99.90;;;;;;5069662;28;19919;-75
2023/12/29 13:13:06;;;;;;;;;;;9.70;99.90;;;;;;5050721;28;19924;-76
2023/12/29 13:15:31;;;;;;;;;;;9.70;99.90;;;;;;5040319;28;19920;-76
2023/12/29 13:17:57;;;;;;;;;;;9.70;99.90;;;;;;5047658;28;19926;-75
2023/12/29 13:20:23;;;;;;;;;;;9.60;99.90;;;;;;5063970;28;19924;-76
2023/12/29 13:22:50;;;;;;;;;;;9.60;99.90;;;;;;5049337;28;19928;-75
2023/12/29 13:25:20;;;;;;;;;;;9.50;99.90;;;;;;5050699;28;20821;-75
2023/12/29 13:27:46;;;;;;;;;;;9.50;99.90;;;;;;5049275;28;19974;-76
2023/12/29 13:30:14;;;;;;;;;;;9.40;99.90;;;;;;5050619;28;19920;-77
2023/12/29 13:32:41;;;;;;;;;;;9.40;99.90;;;;;;5069194;28;19927;-75
2023/12/29 13:35:21;;;;;;;;;;;9.40;99.90;;;;;;5065681;28;19962;-75
2023/12/29 13:37:51;;;;;;;;;;;9.40;99.90;;;;;;5034260;28;20349;-75
2023/12/29 13:40:24;;;;;;;;;;;9.40;99.90;;;;;;5047366;28;19999;-76
2023/12/29 13:42:52;;;;;;;;;;;9.40;99.90;;;;;;5029898;28;19999;-75
2023/12/29 13:45:18;;;;;;;;;;;9.40;99.90;;;;;;5046023;28;19921;-76
2023/12/29 13:47:44;;;;;;;;;;;9.30;99.90;;;;;;5046078;28;19990;-76
2023/12/29 13:50:10;;;;;;;;;;;9.30;99.90;;;;;;5038921;28;19963;-76
2023/12/29 13:52:35;;;;;;;;;;;9.30;99.90;;;;;;5046159;28;19966;-75
2023/12/29 13:55:01;;;;;;;;;;;9.30;99.90;;;;;;5049360;28;19927;-76
2023/12/29 13:57:32;;;;;;;;;;;9.30;99.90;;;;;;5050787;28;19921;-76
2023/12/29 14:00:13;;;;;;;;;;;9.30;99.90;;;;;;5061229;28;19921;-75
2023/12/29 14:02:39;;;;;;;;;;;9.30;99.90;;;;;;5045392;28;20099;-77
2023/12/29 14:05:14;;;;;;;;;;;9.20;99.90;;;;;;5050256;28;20025;-76
2023/12/29 14:07:45;;;;;;;;;;;9.20;99.90;;;;;;5047265;28;20359;-75
2023/12/29 14:10:10;;;;;;;;;;;9.10;99.90;;;;;;5046649;28;19927;-76
2023/12/29 14:12:36;;;;;;;;;;;9.10;99.90;;;;;;5049151;28;20173;-75
2023/12/29 14:15:05;;;;;;;;;;;9.10;99.90;;;;;;5049746;28;19932;-75
2023/12/29 14:17:31;;;;;;;;;;;9.10;99.90;;;;;;5050192;28;20011;-76
2023/12/29 14:20:00;;;;;;;;;;;9.20;99.90;;;;;;5049680;28;20392;-75
2023/12/29 14:22:26;;;;;;;;;;;9.20;99.90;;;;;;5051857;28;20554;-76